Latest Coastal Weather Observations for Gabo Island

IDV60701

Issued at 3:31 pm EDT Sunday 1 March 2015 (issued every 10 minutes, with the page automatically refreshed every 10 minutes)

About coastal observations | Map of coastal stations | Coastal observations for VIC | Marine services | Other Formats
Station Details ID: 084016 Name: GABO ISLAND LIGHTHOUSE Lat: -37.57 Lon: 149.92 Height: 15.2 m
Data from the previous 72 hours. | See also: Recent months at Gabo Island
Date/Time
EDT
Temp

°C
Wind Pressure Rain
since 9am
mm
Weather Cloud Vis
km
Sea
Height
m
Swell
Dir
 
Speed
knots
Gust
knots
hPa Trend Height
m
Period
s
Dir
01/03:30pm 19.1 WSW 29 35 1011.4 - 0.8 - - - - - - -
01/03:00pm 18.9 SW 29 36 1011.3 - 0.8 Fine Mostly clear 25 2 1.5 6 SW
01/02:30pm 18.7 SW 32 37 1011.0 - 0.8 - - - - - - -
01/02:00pm 19.1 SW 29 36 1010.5 - 0.8 - - - - - - -
01/01:30pm 18.5 SW 29 39 1010.6 - 0.8 - - - - - - -
01/01:21pm 18.2 SW 27 34 1010.6 - 0.8 - - - - - - -
01/01:00pm 17.9 WSW 19 24 1010.6 - 0.8 - - - - - - -
01/12:30pm 17.4 WSW 17 22 1010.4 - 0.8 - - - - - - -
01/12:00pm 17.1 WSW 20 23 1010.4 - 0.8 - - - - - - -
01/11:30am 17.1 SW 21 25 1010.1 - 0.8 - - - - - - -
01/11:00am 17.2 WSW 22 27 1009.7 - 0.8 - - - - - - -
01/10:30am 17.1 SW 25 31 1008.7 - 0.8 - - - - - - -
01/10:00am 17.4 SW 27 33 1008.1 - 0.8 - - - - - - -
01/09:39am 18.3 SW 25 28 1006.9 - 0.4 - - - - - - -
01/09:30am 18.5 WSW 12 14 1007.7 - 0.2 - - - - - - -
01/09:00am 18.5 SW 13 16 1006.0 - 1.0 Recent precip. Mostly cloudy 7 1 1.0 9 NE
01/08:30am 18.9 WSW 13 17 1007.6 - 0.4 - - - - - - -
01/08:29am 19.0 WSW 13 16 1007.4 - 0.4 - - - - - - -
01/08:00am 19.0 SSW 4 6 1005.4 - 0.4 - - - - - - -
01/07:30am 18.9 SSW 6 9 1005.3 - 0.2 - - - - - - -
01/07:20am 19.3 N 4 6 1005.7 - 0.2 - - - - - - -
01/07:00am 19.2 N 5 6 1003.6 - 0.0 - - - - - - -
01/06:30am 19.7 WNW 3 4 1002.9 - 0.0 - - - - - - -
01/06:00am 19.6 WNW 3 5 1002.6 - 0.0 - - - - - - -
01/05:30am 19.7 WSW 9 11 1003.8 - 0.0 - - - - - - -
01/05:00am 19.8 WSW 15 17 1004.1 - 0.0 - - - - - - -
01/04:30am 20.3 WSW 16 19 1004.1 - 0.0 - - - - - - -
01/04:00am 21.2 WSW 14 18 1003.7 - 0.0 - - - - - - -
01/03:30am 21.7 WSW 14 17 1003.4 - 0.0 - - - - - - -
01/03:00am 22.2 W 13 19 1002.9 - 0.0 - Mostly cloudy 30 - - - -
01/02:53am 21.4 WSW 10 17 1003.0 - 0.0 - - - - - - -
01/02:30am 20.3 NNW 3 9 1001.0 - 0.0 - - - - - - -
01/02:00am 20.2 NNE 15 19 1001.1 - 0.0 - - - - - - -
01/01:30am 20.4 NNE 23 26 1001.2 - 0.0 - - - - - - -
01/01:00am 20.4 NNE 12 19 1002.3 - 0.0 - - - - - - -
01/12:30am 20.9 N 9 14 1003.1 - 0.0 - - - - - - -
01/12:00am 20.9 NNE 21 24 1002.8 - 0.0 - - - - - - -
 
Date/Time
EDT
Temp

°C
Wind Pressure Rain
since 9am
mm
Weather Cloud Vis
km
Sea
Height
m
Swell
Dir
 
Speed
knots
Gust
knots
hPa Trend Height
m
Period
s
Dir
28/11:30pm 20.9 NE 21 25 1003.3 - 0.0 - - - - - - -
28/11:00pm 20.9 NNE 19 23 1004.3 - 0.0 - - - - - - -
28/10:30pm 21.2 NNE 19 22 1004.7 - 0.0 - - - - - - -
28/10:00pm 21.3 NNE 19 23 1005.1 - 0.0 - - - - - - -
28/09:30pm 21.5 NNE 18 22 1005.4 - 0.0 - - - - - - -
28/09:00pm 21.4 NNE 15 19 1005.4 - 0.0 Fine Mostly cloudy 30 1 0.5 8 S
28/08:30pm 20.9 NNE 12 14 1005.9 - 0.0 - - - - - - -
28/08:00pm 21.0 NNE 10 12 1005.9 - 0.0 - - - - - - -
28/07:30pm 21.3 NNE 12 14 1005.6 - 0.0 - - - - - - -
28/07:00pm 22.0 NNE 13 15 1005.5 - 0.0 - - - - - - -
28/06:30pm 22.5 NNE 14 17 1005.3 - 0.0 - - - - - - -
28/06:00pm 22.5 NNE 17 19 1005.0 - 0.0 - - - - - - -
28/05:30pm 22.8 NNE 15 18 1005.2 - 0.0 - - - - - - -
28/05:00pm 22.8 NNE 16 18 1005.1 - 0.0 - - - - - - -
28/04:30pm 22.8 NNE 16 18 1005.2 - 0.0 - - - - - - -
28/04:00pm 23.0 NNE 15 18 1005.3 - 0.0 - - - - - - -
28/03:30pm 22.5 NNE 15 17 1005.5 - 0.0 - - - - - - -
28/03:00pm 22.1 NNE 17 19 1005.4 - 0.0 Haze Mostly cloudy 10 1 0.5 14 SE
28/02:30pm 22.7 NNE 19 22 1005.8 - 0.0 - - - - - - -
28/02:00pm 23.1 NNE 18 20 1006.0 - 0.0 - - - - - - -
28/01:30pm 22.7 NNE 16 19 1006.4 - 0.0 - - - - - - -
28/01:00pm 22.8 NNE 17 22 1006.6 - 0.0 - - - - - - -
28/12:30pm 21.7 NE 24 27 1005.8 - 0.0 - - - - - - -
28/12:00pm 22.1 NNE 19 23 1007.0 - 0.0 - - - - - - -
28/11:30am 22.0 NNE 18 25 1007.3 - 0.0 - - - - - - -
28/11:00am 22.2 NE 17 22 1007.4 - 0.0 - - - - - - -
28/10:30am 22.2 NE 17 23 1008.0 - 0.0 - - - - - - -
28/10:00am 22.2 NE 14 16 1008.5 - 0.0 - - - - - - -
28/09:30am 21.8 NNE 11 13 1008.9 - 0.0 - - - - - - -
28/09:00am 20.2 NNE 3 6 1008.8 - 0.0 Haze Cloudy 10 <0.1 0.8 14 SE
28/08:30am 19.6 CALM 0 0 1009.1 - 0.0 - - - - - - -
28/08:00am 18.8 W 4 6 1009.2 - 0.0 - - - - - - -
28/07:30am 18.7 CALM 0 0 1009.1 - 0.0 - - - - - - -
28/07:00am 18.3 CALM 0 0 1009.0 - 0.0 - - - - - - -
28/06:30am 18.1 CALM 0 0 1008.8 - 0.0 - - - - - - -
28/06:00am 18.4 CALM 0 0 1008.8 - 0.0 - - - - - - -
28/05:30am 18.3 CALM 0 0 1008.9 - 0.0 - - - - - - -
28/05:00am 18.0 CALM 0 0 1009.0 - 0.0 - - - - - - -
28/04:30am 18.1 CALM 0 0 1009.2 - 0.0 - - - - - - -
28/04:00am 18.0 NW 3 4 1009.4 - 0.0 - - - - - - -
28/03:30am 17.9 WSW 4 4 1009.8 - 0.0 - - - - - - -
28/03:00am 17.8 WSW 5 5 1010.0 - 0.0 Fine Mostly cloudy 30 <0.1 0.5 10 E
28/02:30am 18.1 SW 4 5 1010.2 - 0.0 - - - - - - -
28/02:00am 18.4 SW 5 5 1010.4 - 0.0 - - - - - - -
28/01:30am 18.5 SW 3 4 1010.5 - 0.0 - - - - - - -
28/01:00am 18.3 W 5 6 1010.8 - 0.0 - - - - - - -
28/12:30am 18.0 W 4 6 1010.8 - 0.0 - - - - - - -
28/12:00am 18.4 W 7 7 1010.8 - 0.0 - - - - - - -
 
Date/Time
EDT
Temp

°C
Wind Pressure Rain
since 9am
mm
Weather Cloud Vis
km
Sea
Height
m
Swell
Dir
 
Speed
knots
Gust
knots
hPa Trend Height
m
Period
s
Dir
27/11:30pm 18.4 W 6 6 1011.1 - 0.0 - - - - - - -
27/11:00pm 18.3 WSW 6 6 1011.0 - 0.0 - - - - - - -
27/10:30pm 18.2 WSW 4 5 1010.5 - 0.0 - - - - - - -
27/10:00pm 18.5 W 6 6 1011.0 - 0.0 - - - - - - -
27/09:30pm 18.6 W 5 6 1010.9 - 0.0 - - - - - - -
27/09:00pm 18.7 WNW 6 7 1011.0 - 0.0 Fine Mostly cloudy 30 <0.1 0.8 10 E
27/08:30pm 18.5 NW 5 7 1010.7 - 0.0 - - - - - - -
27/08:00pm 18.9 SW 6 9 1010.6 - 0.0 - - - - - - -
27/07:30pm 18.8 WSW 7 8 1010.4 - 0.0 - - - - - - -
27/07:00pm 19.4 SSW 8 9 1009.9 - 0.0 - - - - - - -
27/06:30pm 19.7 SSW 11 12 1010.1 - 0.0 - - - - - - -
27/06:00pm 19.6 SSW 11 14 1009.8 - 0.0 - - - - - - -
27/05:30pm 19.5 SSW 11 12 1009.7 - 0.0 - - - - - - -
27/05:00pm 20.7 S 10 13 1009.2 - 0.0 - - - - - - -
27/04:30pm 21.5 S 9 11 1009.2 - 0.0 - - - - - - -
27/04:00pm 22.2 E 4 6 1009.2 - 0.0 - - - - - - -
27/03:30pm 22.1 E 8 9 1009.2 - 0.0 - - - - - - -
27/03:00pm 21.0 SSE 6 7 1009.4 - 0.0 Fine Mostly clear 40 <0.1 0.5 8 E
27/02:30pm 21.5 S 7 7 1009.9 - 0.0 - - - - - - -
27/02:00pm 21.2 SSE 4 5 1009.9 - 0.0 - - - - - - -
27/01:30pm 21.4 ESE 5 7 1010.1 - 0.0 - - - - - - -
27/01:00pm 20.9 SSE 5 7 1010.5 - 0.0 - - - - - - -
27/12:30pm 20.3 S 7 8 1011.0 - 0.0 - - - - - - -
27/12:00pm 19.7 S 8 9 1011.0 - 0.0 - - - - - - -
27/11:30am 19.8 SSW 6 8 1011.2 - 0.0 - - - - - - -
27/11:00am 19.2 SSW 6 7 1011.2 - 0.0 - - - - - - -
27/10:30am 19.5 WSW 5 7 1011.0 - 0.0 - - - - - - -
27/10:00am 19.8 W 6 8 1010.9 - 0.0 - - - - - - -
27/09:30am 18.8 W 7 9 1010.9 - 0.0 - - - - - - -
27/09:00am 18.8 W 7 9 1010.2 - 0.0 Fine Mostly cloudy 20 <0.5 0.5 8 E
27/08:30am 18.5 WNW 7 9 1010.3 - 0.0 - - - - - - -
27/08:00am 17.4 WNW 7 9 1010.4 - 0.0 - - - - - - -
27/07:30am 17.0 WNW 7 9 1010.3 - 0.0 - - - - - - -
27/07:00am 16.4 WNW 7 8 1010.1 - 0.0 - - - - - - -
27/06:30am 15.7 WNW 6 8 1009.8 - 0.0 - - - - - - -
27/06:00am 16.5 WNW 6 8 1009.8 - 0.0 - - - - - - -
27/05:30am 16.8 W 8 9 1009.9 - 0.0 - - - - - - -
27/05:00am 16.8 W 8 10 1010.0 - 0.0 - - - - - - -
27/04:30am 17.2 W 11 13 1009.8 - 0.0 - - - - - - -
27/04:00am 17.2 W 12 15 1009.9 - 0.0 - - - - - - -
27/03:30am 17.1 W 11 15 1010.0 - 0.0 - - - - - - -
27/03:00am 17.3 W 12 15 1010.1 - 0.0 Fine Partly cloudy 30 1 - - -
27/02:30am 17.4 WSW 11 14 1010.1 - 0.0 - - - - - - -
27/02:00am 17.3 W 11 14 1010.3 - 0.0 - - - - - - -
27/01:30am 17.2 W 9 11 1010.6 - 0.0 - - - - - - -
27/01:00am 17.4 W 9 11 1010.9 - 0.0 - - - - - - -
27/12:30am 17.5 W 10 12 1011.0 - 0.0 - - - - - - -
27/12:00am 17.8 W 9 12 1010.9 - 0.0 - - - - - - -
 
Date/Time
EDT
Temp

°C
Wind Pressure Rain
since 9am
mm
Weather Cloud Vis
km
Sea
Height
m
Swell
Dir
 
Speed
knots
Gust
knots
hPa Trend Height
m
Period
s
Dir
26/11:30pm 17.9 W 10 12 1010.9 - 0.0 - - - - - - -
26/11:00pm 18.2 W 10 11 1011.0 - 0.0 - - - - - - -
26/10:30pm 18.3 W 10 11 1011.0 - 0.0 - - - - - - -
26/10:00pm 18.4 W 11 12 1010.9 - 0.0 - - - - - - -
26/09:30pm 17.8 W 10 13 1010.7 - 0.0 - - - - - - -
26/09:00pm 18.2 SW 13 14 1010.0 - 0.0 Fine Mostly clear 30 1 1.0 8 E
26/08:30pm 18.4 SW 13 15 1009.6 - 0.0 - - - - - - -
26/08:00pm 18.7 SW 17 19 1009.0 - 0.0 - - - - - - -
26/07:30pm 18.8 SW 14 17 1008.8 - 0.0 - - - - - - -
26/07:00pm 19.0 SW 14 17 1008.5 - 0.0 - - - - - - -
26/06:30pm 19.2 SW 17 19 1008.3 - 0.0 - - - - - - -
26/06:00pm 19.2 SW 19 22 1008.0 - 0.0 - - - - - - -
26/05:30pm 19.1 SW 22 26 1008.1 - 0.0 - - - - - - -
26/05:00pm 19.2 SSW 22 26 1007.8 - 0.0 - - - - - - -
26/04:30pm 19.5 SW 21 24 1007.8 - 0.0 - - - - - - -
26/04:00pm 19.1 SW 22 25 1007.7 - 0.0 - - - - - - -

Other Formats:

Comma delimited format used in spreadsheet applications
http://www.bom.gov.au/fwo/IDV60701/IDV60701.94933.axf

JavaScript Object Notation format (JSON) in row-major order
http://www.bom.gov.au/fwo/IDV60701/IDV60701.94933.json